createdAt,value
2022-08-25T00:02:09.839Z,26.70
2022-08-25T00:04:42.832Z,26.70
2022-08-25T00:07:18.541Z,26.70
2022-08-25T00:09:51.364Z,26.60
2022-08-25T00:12:23.920Z,26.60
2022-08-25T00:14:56.657Z,26.60
2022-08-25T00:17:29.197Z,26.60
2022-08-25T00:20:02.030Z,26.60
2022-08-25T00:22:34.368Z,26.60
2022-08-25T00:25:07.699Z,26.60
2022-08-25T00:27:40.305Z,26.60
2022-08-25T00:30:15.900Z,26.60
2022-08-25T00:32:55.164Z,26.60
2022-08-25T00:35:29.728Z,26.60
2022-08-25T00:38:02.509Z,26.50
2022-08-25T00:40:35.439Z,26.50
2022-08-25T00:43:08.710Z,26.50
2022-08-25T00:45:41.359Z,26.50
2022-08-25T00:48:13.921Z,26.50
2022-08-25T00:50:46.421Z,26.50
2022-08-25T00:53:19.541Z,26.50
2022-08-25T00:55:52.324Z,26.50
2022-08-25T00:58:27.497Z,26.40
2022-08-25T01:01:00.957Z,26.40
2022-08-25T01:03:35.691Z,26.40
2022-08-25T01:06:10.427Z,26.40
2022-08-25T01:08:43.236Z,26.40
2022-08-25T01:11:15.650Z,26.40
2022-08-25T01:13:55.789Z,26.40
2022-08-25T01:16:28.356Z,26.40
2022-08-25T01:19:00.945Z,26.40
2022-08-25T01:21:40.948Z,26.40
2022-08-25T01:24:24.643Z,26.40
2022-08-25T01:26:57.291Z,26.30
2022-08-25T01:29:30.280Z,26.30
2022-08-25T01:32:06.705Z,26.30
2022-08-25T01:34:42.363Z,26.30
2022-08-25T01:37:15.997Z,26.30
2022-08-25T01:39:48.648Z,26.30
2022-08-25T01:42:24.074Z,26.30
2022-08-25T01:44:57.699Z,26.30
2022-08-25T01:47:30.600Z,26.20
2022-08-25T01:50:04.723Z,26.20
2022-08-25T01:53:03.430Z,26.20
2022-08-25T01:55:51.937Z,26.20
2022-08-25T01:58:28.738Z,26.30
2022-08-25T02:01:05.950Z,26.20
2022-08-25T02:03:43.199Z,26.20
2022-08-25T02:06:19.006Z,26.20
2022-08-25T02:08:54.244Z,26.20
2022-08-25T02:11:27.190Z,26.20
2022-08-25T02:13:59.882Z,26.20
2022-08-25T02:16:33.865Z,26.20
2022-08-25T02:19:09.847Z,26.20
2022-08-25T02:21:42.940Z,26.20
2022-08-25T02:24:15.651Z,26.20
2022-08-25T02:26:48.434Z,26.10
2022-08-25T02:29:20.865Z,26.20
2022-08-25T02:31:53.801Z,26.20
2022-08-25T02:34:26.304Z,26.10
2022-08-25T02:36:59.079Z,26.10
2022-08-25T02:39:31.413Z,26.10
2022-08-25T02:42:04.289Z,26.10
2022-08-25T02:44:36.798Z,26.10
2022-08-25T02:47:09.335Z,26.10
2022-08-25T02:49:41.987Z,26.10
2022-08-25T02:52:15.085Z,26.00
2022-08-25T02:54:47.653Z,26.00
2022-08-25T02:57:20.223Z,26.00
2022-08-25T02:59:52.928Z,26.00
2022-08-25T03:02:26.391Z,26.00
2022-08-25T03:04:59.264Z,26.00
2022-08-25T03:07:31.733Z,26.00
2022-08-25T03:10:11.778Z,26.00
2022-08-25T03:12:44.522Z,26.00
2022-08-25T03:15:17.526Z,26.00
2022-08-25T03:17:50.574Z,25.90
2022-08-25T03:20:26.006Z,25.90
2022-08-25T03:22:58.634Z,25.90
2022-08-25T03:25:49.721Z,25.90
2022-08-25T03:28:28.934Z,25.90
2022-08-25T03:31:02.744Z,25.90
2022-08-25T03:33:35.849Z,25.90
2022-08-25T03:36:08.921Z,25.90
2022-08-25T03:38:42.134Z,25.90
2022-08-25T03:41:32.985Z,25.90
2022-08-25T03:44:07.473Z,25.90
2022-08-25T03:46:44.307Z,25.90
2022-08-25T03:49:20.078Z,25.90
2022-08-25T03:51:55.116Z,25.90
2022-08-25T03:54:28.192Z,25.90
2022-08-25T03:57:00.863Z,25.90
2022-08-25T03:59:33.577Z,25.90
2022-08-25T04:02:07.108Z,25.90
2022-08-25T04:04:41.048Z,25.80
2022-08-25T04:07:13.894Z,25.80
2022-08-25T04:09:46.662Z,25.80
2022-08-25T04:12:19.169Z,25.80
2022-08-25T04:14:52.564Z,25.80
2022-08-25T04:17:25.535Z,25.80
2022-08-25T04:19:58.323Z,25.80
2022-08-25T04:22:32.175Z,25.80
2022-08-25T04:25:09.911Z,25.80
2022-08-25T04:27:42.979Z,25.70
2022-08-25T04:30:16.018Z,25.80
2022-08-25T04:32:49.633Z,25.70
2022-08-25T04:35:23.281Z,25.70
2022-08-25T04:37:56.071Z,25.80
2022-08-25T04:40:29.141Z,25.70
2022-08-25T04:43:02.015Z,25.70
2022-08-25T04:45:41.092Z,25.80
2022-08-25T04:48:13.705Z,25.80
2022-08-25T04:51:06.142Z,25.80
2022-08-25T04:53:40.544Z,25.80
2022-08-25T04:56:15.522Z,25.80
2022-08-25T04:58:48.317Z,25.80
2022-08-25T05:01:24.652Z,25.80
2022-08-25T05:04:00.676Z,25.80
2022-08-25T05:06:33.894Z,25.90
2022-08-25T05:09:06.700Z,25.90
2022-08-25T05:11:40.669Z,26.00
2022-08-25T05:14:15.707Z,26.10
2022-08-25T05:16:49.335Z,26.30
2022-08-25T05:19:24.092Z,26.70
2022-08-25T05:21:58.020Z,27.00
2022-08-25T05:25:26.890Z,27.30
2022-08-25T05:27:59.561Z,27.40
2022-08-25T05:30:32.121Z,27.60
2022-08-25T05:33:04.834Z,27.90
2022-08-25T05:35:38.246Z,28.20
2022-08-25T05:38:15.225Z,28.50
2022-08-25T05:40:48.732Z,28.70
2022-08-25T05:43:21.423Z,29.00
2022-08-25T05:45:58.535Z,29.20
2022-08-25T05:48:31.312Z,29.30
2022-08-25T05:51:07.200Z,29.40
2022-08-25T05:53:43.464Z,29.50
2022-08-25T05:56:16.424Z,29.60
2022-08-25T05:59:54.305Z,29.70
2022-08-25T06:02:44.151Z,29.80
2022-08-25T06:05:20.327Z,29.90
2022-08-25T06:07:53.453Z,29.90
2022-08-25T06:10:26.313Z,29.90
2022-08-25T06:12:59.143Z,30.00
2022-08-25T06:15:32.356Z,30.00
2022-08-25T06:18:05.641Z,30.00
2022-08-25T06:20:38.339Z,30.20
2022-08-25T06:23:13.241Z,30.20
2022-08-25T06:25:53.577Z,30.30
2022-08-25T06:28:26.245Z,30.40
2022-08-25T06:31:00.568Z,30.40
2022-08-25T06:33:33.630Z,30.50
2022-08-25T06:36:50.763Z,30.40
2022-08-25T06:39:24.536Z,30.50
2022-08-25T06:41:58.122Z,30.60
2022-08-25T06:44:31.786Z,30.70
2022-08-25T06:47:04.620Z,30.70
2022-08-25T06:49:37.457Z,30.70
2022-08-25T06:52:10.798Z,30.70
2022-08-25T06:54:43.419Z,30.80
2022-08-25T06:57:16.051Z,30.80
2022-08-25T06:59:49.498Z,30.90
2022-08-25T07:02:26.239Z,31.00
2022-08-25T07:04:58.989Z,31.00
2022-08-25T07:07:43.020Z,31.00
2022-08-25T07:10:37.053Z,31.00
2022-08-25T07:13:10.193Z,30.90
2022-08-25T07:15:44.491Z,30.90
2022-08-25T07:18:17.720Z,30.80
2022-08-25T07:20:52.392Z,30.90
2022-08-25T07:23:26.025Z,30.90
2022-08-25T07:26:27.171Z,30.90
2022-08-25T07:29:13.314Z,31.00
2022-08-25T07:31:46.454Z,31.00
2022-08-25T07:34:39.033Z,31.00
2022-08-25T07:37:15.052Z,31.00
2022-08-25T07:39:56.674Z,31.10
2022-08-25T07:42:30.377Z,31.10
2022-08-25T07:45:05.663Z,31.10
2022-08-25T07:47:40.813Z,31.10
2022-08-25T07:50:14.654Z,31.10
2022-08-25T07:52:49.757Z,31.10
2022-08-25T07:55:29.357Z,31.10
2022-08-25T07:58:02.735Z,31.20
2022-08-25T08:00:38.050Z,31.10
2022-08-25T08:03:19.748Z,31.10
2022-08-25T08:06:09.148Z,31.10
2022-08-25T08:08:45.953Z,31.00
2022-08-25T08:11:28.392Z,30.90
2022-08-25T08:14:01.981Z,30.80
2022-08-25T08:16:35.455Z,30.80
2022-08-25T08:19:08.231Z,30.80
2022-08-25T08:21:42.201Z,30.90
2022-08-25T08:24:31.166Z,30.90
2022-08-25T08:27:11.591Z,30.90
2022-08-25T08:29:44.590Z,31.00
2022-08-25T08:32:18.732Z,31.10
2022-08-25T08:34:51.504Z,31.20
2022-08-25T08:37:24.458Z,31.20
2022-08-25T08:39:57.208Z,31.20
2022-08-25T08:42:50.884Z,31.20
2022-08-25T08:45:31.379Z,31.20
2022-08-25T08:48:28.445Z,31.20
2022-08-25T08:51:17.930Z,31.30
2022-08-25T08:53:57.362Z,31.30
2022-08-25T08:56:49.156Z,31.30
2022-08-25T08:59:29.903Z,31.30
2022-08-25T09:02:06.334Z,31.20
2022-08-25T09:04:52.885Z,31.20
2022-08-25T09:07:33.674Z,31.10
2022-08-25T09:10:06.925Z,31.00
2022-08-25T09:13:11.338Z,30.90
2022-08-25T09:16:43.702Z,30.90
2022-08-25T09:19:41.821Z,30.80
2022-08-25T09:22:35.164Z,30.80
2022-08-25T09:25:34.554Z,30.70
2022-08-25T09:28:13.499Z,30.70
2022-08-25T09:31:04.488Z,30.60
2022-08-25T09:33:37.349Z,30.50
2022-08-25T09:36:10.020Z,30.50
2022-08-25T09:38:42.743Z,30.40
2022-08-25T09:41:19.531Z,30.40
2022-08-25T09:43:55.527Z,30.40
2022-08-25T09:46:29.977Z,30.30
2022-08-25T09:49:17.066Z,30.30
2022-08-25T09:51:49.722Z,30.30
2022-08-25T09:54:43.824Z,30.30
2022-08-25T09:57:45.038Z,30.30
2022-08-25T10:04:33.395Z,30.40
2022-08-25T10:07:26.374Z,30.50
2022-08-25T10:10:16.987Z,30.50
2022-08-25T10:12:51.179Z,30.50
2022-08-25T10:15:30.727Z,30.50
2022-08-25T10:18:22.281Z,30.50
2022-08-25T10:21:17.775Z,30.50
2022-08-25T10:23:56.244Z,30.40
2022-08-25T10:27:01.960Z,30.50
2022-08-25T10:30:02.928Z,30.50
2022-08-25T10:33:13.229Z,30.50
2022-08-25T10:36:35.302Z,30.60
2022-08-25T10:39:34.110Z,30.80
2022-08-25T10:42:29.770Z,30.90
2022-08-25T10:45:32.339Z,30.90
2022-08-25T10:48:07.942Z,30.90
2022-08-25T10:50:58.319Z,30.90
2022-08-25T10:53:37.460Z,30.90
2022-08-25T10:56:24.183Z,30.80
2022-08-25T10:59:27.419Z,30.80
2022-08-25T11:02:29.085Z,30.80
2022-08-25T11:05:24.756Z,30.90
2022-08-25T11:08:21.758Z,30.90
2022-08-25T11:11:02.613Z,30.90
2022-08-25T11:14:11.020Z,31.00
2022-08-25T11:16:52.889Z,31.00
2022-08-25T11:19:39.050Z,31.00
2022-08-25T11:22:28.127Z,31.00
2022-08-25T11:25:13.169Z,30.90
2022-08-25T11:28:12.242Z,30.70
2022-08-25T11:30:46.381Z,30.60
2022-08-25T11:33:20.760Z,30.50
2022-08-25T11:36:02.461Z,30.40
2022-08-25T11:38:59.977Z,30.30
2022-08-25T11:41:39.198Z,30.20
2022-08-25T11:44:53.207Z,30.00
2022-08-25T11:47:41.976Z,29.90
2022-08-25T11:50:35.210Z,29.80
2022-08-25T11:53:26.887Z,29.50
2022-08-25T11:56:08.789Z,28.90
2022-08-25T11:58:59.321Z,28.50
2022-08-25T12:01:41.030Z,28.10
2022-08-25T12:04:45.157Z,27.80
2022-08-25T12:07:22.783Z,27.50
2022-08-25T12:09:55.574Z,27.40
2022-08-25T12:12:38.963Z,27.40
2022-08-25T12:15:17.882Z,27.40
2022-08-25T12:18:12.007Z,27.40
2022-08-25T12:20:55.577Z,27.40
2022-08-25T12:23:32.067Z,27.50
2022-08-25T12:26:46.180Z,27.50
2022-08-25T12:29:35.181Z,27.50
2022-08-25T12:32:27.520Z,27.60
2022-08-25T12:35:12.320Z,27.60
2022-08-25T12:38:10.566Z,27.70
2022-08-25T12:40:43.824Z,27.70
2022-08-25T12:43:37.476Z,27.90
2022-08-25T12:46:22.085Z,27.90
2022-08-25T12:49:11.919Z,27.90
2022-08-25T12:51:48.820Z,28.00
2022-08-25T12:54:22.596Z,28.00
2022-08-25T12:56:59.772Z,28.00
2022-08-25T12:59:44.693Z,28.10
2022-08-25T13:03:02.414Z,28.10
2022-08-25T13:05:54.468Z,28.20
2022-08-25T13:08:56.427Z,28.20
2022-08-25T13:11:41.145Z,28.20
2022-08-25T13:14:41.012Z,28.30
2022-08-25T13:17:27.753Z,28.30
2022-08-25T13:20:40.260Z,28.30
2022-08-25T13:23:22.794Z,28.30
2022-08-25T13:25:58.339Z,28.40
2022-08-25T13:28:35.991Z,28.40
2022-08-25T13:31:22.696Z,28.50
2022-08-25T13:34:02.673Z,28.60
2022-08-25T13:37:04.042Z,28.60
2022-08-25T13:39:56.542Z,28.60
2022-08-25T13:42:32.178Z,28.60
2022-08-25T13:45:09.378Z,28.70
2022-08-25T13:47:45.903Z,28.70
2022-08-25T13:50:28.611Z,28.60
2022-08-25T13:53:12.765Z,28.60
2022-08-25T13:55:50.944Z,28.60
2022-08-25T13:58:44.881Z,28.60
2022-08-25T14:01:47.997Z,28.60
2022-08-25T14:04:50.585Z,28.60
2022-08-25T14:07:26.033Z,28.60
2022-08-25T14:10:01.688Z,28.60
2022-08-25T14:12:40.267Z,28.60
2022-08-25T14:15:18.801Z,28.60
2022-08-25T14:18:06.087Z,28.60
2022-08-25T14:20:46.532Z,28.60
2022-08-25T14:23:24.377Z,28.50
2022-08-25T14:25:58.345Z,28.60
2022-08-25T14:28:32.279Z,28.50
2022-08-25T14:31:34.290Z,28.50
2022-08-25T14:34:12.309Z,28.50
2022-08-25T14:36:45.179Z,28.50
2022-08-25T14:39:19.823Z,28.40
2022-08-25T14:41:53.891Z,28.40
2022-08-25T14:44:27.365Z,28.40
2022-08-25T14:47:02.398Z,28.50
2022-08-25T14:49:42.978Z,28.50
2022-08-25T14:52:25.369Z,28.50
2022-08-25T14:54:58.027Z,28.50
2022-08-25T14:57:30.691Z,28.50
2022-08-25T15:00:05.690Z,28.50
2022-08-25T15:02:44.129Z,28.50
2022-08-25T15:05:28.479Z,28.50
2022-08-25T15:08:20.109Z,28.50
2022-08-25T15:10:53.567Z,28.50
2022-08-25T15:13:28.215Z,28.50
2022-08-25T15:16:01.398Z,28.50
2022-08-25T15:18:36.353Z,28.50
2022-08-25T15:21:09.084Z,28.60
2022-08-25T15:23:44.563Z,28.50
2022-08-25T15:26:18.966Z,28.50
2022-08-25T15:28:51.914Z,28.60
2022-08-25T15:31:25.330Z,28.60
2022-08-25T15:33:59.745Z,28.60
2022-08-25T15:36:34.413Z,28.60
2022-08-25T15:39:08.100Z,28.60
2022-08-25T15:41:42.730Z,28.60
2022-08-25T15:44:15.503Z,28.70
2022-08-25T15:46:50.301Z,28.70
2022-08-25T15:49:24.208Z,28.70
2022-08-25T15:51:57.005Z,28.70
2022-08-25T15:54:31.421Z,28.80
2022-08-25T15:57:04.574Z,28.80
2022-08-25T15:59:42.461Z,28.80
2022-08-25T16:02:15.496Z,28.80
2022-08-25T16:04:48.353Z,28.80
2022-08-25T16:07:29.337Z,28.80
2022-08-25T16:10:14.997Z,28.80
2022-08-25T16:12:56.392Z,28.80
2022-08-25T16:15:39.489Z,28.80
2022-08-25T16:18:43.304Z,28.80
2022-08-25T16:21:32.643Z,28.80
2022-08-25T16:24:23.176Z,28.80
2022-08-25T16:27:11.399Z,28.80
2022-08-25T16:30:00.241Z,28.80
2022-08-25T16:32:39.497Z,28.80
2022-08-25T16:35:14.861Z,28.80
2022-08-25T16:37:48.678Z,28.80
2022-08-25T16:40:24.825Z,28.80
2022-08-25T16:42:59.552Z,28.80
2022-08-25T16:45:32.215Z,28.80
2022-08-25T16:48:06.387Z,28.80
2022-08-25T16:50:39.962Z,28.80
2022-08-25T16:53:31.345Z,28.80
2022-08-25T16:56:07.506Z,28.80
2022-08-25T16:58:52.272Z,28.90
2022-08-25T17:01:39.751Z,28.90
2022-08-25T17:04:32.428Z,28.90
2022-08-25T17:07:13.767Z,28.80
2022-08-25T17:10:14.343Z,28.90
2022-08-25T17:12:55.456Z,28.80
2022-08-25T17:15:57.096Z,28.80
2022-08-25T17:18:41.052Z,28.80
2022-08-25T17:21:24.015Z,28.80
2022-08-25T17:24:05.428Z,28.80
2022-08-25T17:27:02.620Z,28.80
2022-08-25T17:29:40.578Z,28.80
2022-08-25T17:32:20.865Z,28.80
2022-08-25T17:35:29.697Z,28.80
2022-08-25T17:38:08.661Z,28.80
2022-08-25T17:40:50.855Z,28.80
2022-08-25T17:43:56.433Z,28.70
2022-08-25T17:47:10.081Z,28.70
2022-08-25T17:50:02.579Z,28.80
2022-08-25T17:52:48.852Z,28.80
2022-08-25T17:55:33.876Z,28.70
2022-08-25T17:58:22.075Z,28.70
2022-08-25T18:01:13.396Z,28.70
2022-08-25T18:03:54.349Z,28.80
2022-08-25T18:06:40.940Z,28.70
2022-08-25T18:09:27.075Z,28.70
2022-08-25T18:12:05.579Z,28.70
2022-08-25T18:14:49.896Z,28.70
2022-08-25T18:17:47.415Z,28.70
2022-08-25T18:20:20.472Z,28.70
2022-08-25T18:22:57.787Z,28.70
2022-08-25T18:25:31.511Z,28.70
2022-08-25T18:28:04.460Z,28.60
2022-08-25T18:30:37.791Z,28.60
2022-08-25T18:33:11.073Z,28.70
2022-08-25T18:35:43.612Z,28.60
2022-08-25T18:38:37.579Z,28.60
2022-08-25T18:41:11.675Z,28.60
2022-08-25T18:43:44.722Z,28.60
2022-08-25T18:46:17.454Z,28.60
2022-08-25T18:48:55.952Z,28.50
2022-08-25T18:51:32.868Z,28.60
2022-08-25T18:54:06.195Z,28.50
2022-08-25T18:56:38.796Z,28.50
2022-08-25T18:59:11.571Z,28.50
2022-08-25T19:01:44.930Z,28.50
2022-08-25T19:04:18.153Z,28.50
2022-08-25T19:06:51.772Z,28.40
2022-08-25T19:09:24.575Z,28.40
2022-08-25T19:11:57.325Z,28.40
2022-08-25T19:14:30.977Z,28.40
2022-08-25T19:17:03.652Z,28.40
2022-08-25T19:19:36.789Z,28.40
2022-08-25T19:22:37.918Z,28.40
2022-08-25T19:25:06.592Z,28.30
2022-08-25T19:27:41.091Z,28.30
2022-08-25T19:30:15.408Z,28.40
2022-08-25T19:32:49.077Z,28.30
2022-08-25T19:35:30.912Z,28.30
2022-08-25T19:38:07.494Z,28.30
2022-08-25T19:41:00.707Z,28.30
2022-08-25T19:43:33.516Z,28.30
2022-08-25T19:46:07.357Z,28.30
2022-08-25T19:48:40.130Z,28.30
2022-08-25T19:51:14.264Z,28.30
2022-08-25T19:53:54.758Z,28.30
2022-08-25T19:56:29.053Z,28.20
2022-08-25T19:59:02.856Z,28.30
2022-08-25T20:01:36.880Z,28.20
2022-08-25T20:04:13.802Z,28.20
2022-08-25T20:06:48.378Z,28.30
2022-08-25T20:09:39.045Z,28.20
2022-08-25T20:14:53.462Z,28.30
2022-08-25T20:17:28.460Z,28.20
2022-08-25T20:20:04.683Z,28.20
2022-08-25T20:22:41.226Z,28.30
2022-08-25T20:25:18.934Z,28.30
2022-08-25T20:27:55.594Z,28.20
2022-08-25T20:30:30.110Z,28.20
2022-08-25T20:33:03.402Z,28.30
2022-08-25T20:35:36.052Z,28.20
2022-08-25T20:38:08.775Z,28.20
2022-08-25T20:40:42.197Z,28.20
2022-08-25T20:43:16.002Z,28.20
2022-08-25T20:45:48.431Z,28.20
2022-08-25T20:48:22.471Z,28.20
2022-08-25T20:50:59.468Z,28.20
2022-08-25T20:53:32.244Z,28.20
2022-08-25T20:56:13.464Z,28.10
2022-08-25T20:58:46.790Z,28.10
2022-08-25T21:01:37.953Z,28.10
2022-08-25T21:04:14.370Z,28.10
2022-08-25T21:06:47.696Z,28.10
2022-08-25T21:09:23.196Z,28.10
2022-08-25T21:11:57.629Z,28.10
2022-08-25T21:14:30.375Z,28.10
2022-08-25T21:17:03.323Z,28.10
2022-08-25T21:19:36.319Z,28.10
2022-08-25T21:22:10.807Z,28.10
2022-08-25T21:24:43.610Z,28.00
2022-08-25T21:27:17.385Z,28.10
2022-08-25T21:29:54.674Z,28.10
2022-08-25T21:32:27.891Z,28.00
2022-08-25T21:35:00.506Z,28.00
2022-08-25T21:37:34.903Z,28.00
2022-08-25T21:40:08.762Z,28.00
2022-08-25T21:42:41.520Z,28.00
2022-08-25T21:45:14.408Z,28.00
2022-08-25T21:47:46.926Z,28.00
2022-08-25T21:50:20.074Z,28.00
2022-08-25T21:52:54.579Z,28.00
2022-08-25T21:55:27.522Z,28.00
2022-08-25T21:58:00.222Z,28.00
2022-08-25T22:00:34.119Z,28.00
2022-08-25T22:03:06.762Z,28.00
2022-08-25T22:05:39.608Z,28.00
2022-08-25T22:08:13.318Z,28.00
2022-08-25T22:10:45.707Z,27.90
2022-08-25T22:13:18.323Z,28.00
2022-08-25T22:15:52.085Z,27.90
2022-08-25T22:18:25.396Z,27.90
2022-08-25T22:20:58.432Z,27.90
2022-08-25T22:23:44.210Z,27.90
2022-08-25T22:26:22.111Z,27.90
2022-08-25T22:28:55.144Z,27.90
2022-08-25T22:31:28.777Z,27.90
2022-08-25T22:34:02.953Z,27.90
2022-08-25T22:36:38.362Z,27.90
2022-08-25T22:39:12.285Z,27.90
2022-08-25T22:41:46.064Z,27.90
2022-08-25T22:44:18.691Z,27.80
2022-08-25T22:46:51.145Z,27.80
2022-08-25T22:49:24.325Z,27.80
2022-08-25T22:51:56.930Z,27.80
2022-08-25T22:54:30.127Z,27.80
2022-08-25T22:57:06.679Z,27.80
2022-08-25T22:59:39.727Z,27.80
2022-08-25T23:02:12.632Z,27.80
2022-08-25T23:04:45.316Z,27.80
2022-08-25T23:07:18.047Z,27.80
2022-08-25T23:09:50.467Z,27.70
2022-08-25T23:12:23.868Z,27.70
2022-08-25T23:14:56.652Z,27.70
2022-08-25T23:17:29.702Z,27.70
2022-08-25T23:20:22.383Z,27.70
2022-08-25T23:22:55.747Z,27.70
2022-08-25T23:25:29.197Z,27.70
2022-08-25T23:28:02.944Z,27.70
2022-08-25T23:30:35.994Z,27.70
2022-08-25T23:33:15.363Z,27.60
2022-08-25T23:36:06.838Z,27.60
2022-08-25T23:38:41.123Z,27.60
2022-08-25T23:41:19.426Z,27.60
2022-08-25T23:43:53.890Z,27.60
2022-08-25T23:46:29.792Z,27.60
2022-08-25T23:49:04.315Z,27.60
2022-08-25T23:51:38.554Z,27.60
2022-08-25T23:54:12.999Z,27.60
2022-08-25T23:56:51.607Z,27.60
2022-08-25T23:59:25.659Z,27.60
